createdAt,value
2023-03-05T00:00:49.790Z,16.13
2023-03-05T00:03:17.046Z,14.20
2023-03-05T00:05:44.284Z,14.30
2023-03-05T00:08:10.993Z,11.07
2023-03-05T00:10:37.651Z,16.10
2023-03-05T00:13:04.564Z,12.43
2023-03-05T00:15:31.220Z,15.67
2023-03-05T00:17:58.220Z,18.10
2023-03-05T00:20:24.933Z,14.03
2023-03-05T00:22:51.672Z,12.63
2023-03-05T00:25:18.333Z,11.20
2023-03-05T00:27:44.993Z,8.37
2023-03-05T00:30:12.397Z,9.57
2023-03-05T00:32:39.187Z,5.00
2023-03-05T00:35:06.232Z,9.87
2023-03-05T00:37:32.994Z,11.00
2023-03-05T00:40:00.077Z,8.30
2023-03-05T00:42:26.771Z,11.07
2023-03-05T00:44:53.634Z,11.67
2023-03-05T00:47:20.347Z,7.90
2023-03-05T00:49:47.026Z,10.23
2023-03-05T00:52:13.757Z,8.73
2023-03-05T00:54:40.421Z,8.23
2023-03-05T00:57:07.165Z,7.90
2023-03-05T00:59:34.127Z,9.83
2023-03-05T01:02:00.908Z,8.20
2023-03-05T01:04:29.393Z,11.77
2023-03-05T01:06:56.201Z,14.43
2023-03-05T01:09:25.118Z,11.63
2023-03-05T01:11:52.844Z,15.87
2023-03-05T01:14:20.845Z,9.13
2023-03-05T01:16:48.244Z,14.03
2023-03-05T01:19:15.906Z,11.23
2023-03-05T01:21:42.938Z,10.23
2023-03-05T01:24:10.076Z,21.10
2023-03-05T01:26:36.757Z,17.37
2023-03-05T01:29:04.151Z,21.03
2023-03-05T01:31:30.922Z,20.93
2023-03-05T01:34:00.025Z,22.10
2023-03-05T01:36:26.722Z,21.67
2023-03-05T01:38:53.624Z,14.83
2023-03-05T01:41:21.042Z,18.13
2023-03-05T01:43:48.702Z,19.80
2023-03-05T01:46:34.914Z,17.70
2023-03-05T01:49:13.447Z,19.37
2023-03-05T01:51:56.346Z,15.43
2023-03-05T01:54:28.163Z,14.67
2023-03-05T01:56:58.968Z,15.27
2023-03-05T01:59:26.943Z,19.20
2023-03-05T02:01:56.609Z,15.80
2023-03-05T02:04:31.154Z,23.27
2023-03-05T02:06:58.789Z,22.70
2023-03-05T02:09:28.564Z,24.10
2023-03-05T02:11:56.223Z,23.80
2023-03-05T02:14:24.243Z,16.00
2023-03-05T02:16:51.342Z,18.83
2023-03-05T02:19:18.107Z,23.60
2023-03-05T02:21:47.735Z,26.57
2023-03-05T02:24:31.693Z,26.53
2023-03-05T02:26:58.544Z,21.57
2023-03-05T02:29:25.882Z,22.27
2023-03-05T02:31:53.014Z,21.50
2023-03-05T02:34:19.716Z,24.27
2023-03-05T02:36:46.685Z,18.13
2023-03-05T02:39:13.524Z,16.07
2023-03-05T02:41:40.788Z,22.63
2023-03-05T02:44:07.541Z,22.17
2023-03-05T02:46:34.268Z,17.87
2023-03-05T02:49:01.006Z,18.30
2023-03-05T02:51:28.051Z,22.10
2023-03-05T02:53:55.179Z,17.20
2023-03-05T02:56:24.752Z,17.10
2023-03-05T02:58:53.132Z,23.30
2023-03-05T03:01:19.856Z,17.50
2023-03-05T03:03:46.582Z,16.60
2023-03-05T03:06:13.347Z,17.67
2023-03-05T03:08:40.002Z,14.67
2023-03-05T03:11:09.588Z,15.00
2023-03-05T03:13:36.455Z,15.17
2023-03-05T03:16:08.655Z,17.07
2023-03-05T03:18:35.470Z,13.13
2023-03-05T03:21:02.574Z,23.10
2023-03-05T03:23:29.503Z,23.20
2023-03-05T03:25:56.182Z,20.27
2023-03-05T03:28:22.854Z,15.43
2023-03-05T03:30:49.704Z,24.03
2023-03-05T03:33:18.098Z,18.80
2023-03-05T03:35:47.975Z,19.17
2023-03-05T03:38:14.733Z,16.13
2023-03-05T03:40:42.487Z,23.63
2023-03-05T03:43:09.473Z,16.10
2023-03-05T03:45:39.784Z,17.37
2023-03-05T03:48:06.493Z,16.73
2023-03-05T03:50:33.286Z,20.87
2023-03-05T03:53:00.508Z,17.30
2023-03-05T03:55:27.158Z,16.87
2023-03-05T03:57:53.829Z,20.70
2023-03-05T04:00:21.001Z,16.17
2023-03-05T04:02:47.729Z,17.60
2023-03-05T04:05:14.541Z,11.80
2023-03-05T04:07:41.228Z,15.37
2023-03-05T04:10:08.606Z,22.53
2023-03-05T04:12:35.311Z,13.63
2023-03-05T04:15:02.040Z,10.80
2023-03-05T04:17:28.729Z,13.90
2023-03-05T04:19:55.740Z,10.97
2023-03-05T04:22:23.099Z,14.77
2023-03-05T04:24:49.906Z,12.07
2023-03-05T04:27:16.641Z,11.50
2023-03-05T04:29:43.367Z,14.20
2023-03-05T04:32:10.189Z,10.70
2023-03-05T04:34:37.946Z,13.57
2023-03-05T04:37:04.672Z,16.53
2023-03-05T04:39:31.436Z,14.13
2023-03-05T04:41:58.092Z,17.20
2023-03-05T04:44:25.927Z,9.73
2023-03-05T04:46:52.678Z,12.83
2023-03-05T04:49:19.450Z,12.20
2023-03-05T04:51:46.240Z,10.13
2023-03-05T04:54:12.952Z,12.63
2023-03-05T04:56:39.624Z,11.83
2023-03-05T04:59:06.295Z,11.20
2023-03-05T05:01:35.109Z,14.03
2023-03-05T05:04:02.178Z,9.20
2023-03-05T05:06:28.957Z,14.40
2023-03-05T05:08:55.630Z,13.87
2023-03-05T05:11:22.329Z,13.53
2023-03-05T05:13:48.979Z,12.80
2023-03-05T05:16:16.310Z,8.43
2023-03-05T05:18:43.083Z,9.80
2023-03-05T05:21:11.900Z,13.40
2023-03-05T05:23:39.369Z,9.93
2023-03-05T05:26:08.304Z,9.40
2023-03-05T05:28:35.730Z,13.43
2023-03-05T05:31:07.182Z,7.20
2023-03-05T05:33:34.260Z,11.10
2023-03-05T05:36:04.108Z,8.73
2023-03-05T05:38:31.034Z,8.23
2023-03-05T05:41:09.567Z,6.17
2023-03-05T05:43:36.713Z,7.30
2023-03-05T05:46:06.434Z,6.90
2023-03-05T05:48:34.835Z,7.67
2023-03-05T05:51:06.690Z,8.37
2023-03-05T05:53:33.625Z,11.20
2023-03-05T05:56:00.453Z,8.93
2023-03-05T05:58:27.183Z,9.47
2023-03-05T06:00:53.840Z,9.83
2023-03-05T06:03:20.553Z,5.03
2023-03-05T06:05:47.651Z,5.20
2023-03-05T06:08:14.425Z,4.37
2023-03-05T06:10:41.151Z,4.27
2023-03-05T06:13:07.810Z,6.57
2023-03-05T06:15:34.528Z,5.93
2023-03-05T06:18:01.642Z,4.67
2023-03-05T06:20:28.896Z,6.37
2023-03-05T06:22:55.618Z,4.43
2023-03-05T06:25:22.399Z,5.00
2023-03-05T06:27:49.074Z,6.00
2023-03-05T06:30:15.884Z,6.77
2023-03-05T06:32:42.580Z,6.00
2023-03-05T06:35:09.371Z,5.90
2023-03-05T06:37:36.093Z,15.27
2023-03-05T06:40:02.960Z,7.17
2023-03-05T06:42:29.683Z,10.37
2023-03-05T06:44:56.340Z,9.80
2023-03-05T06:47:23.021Z,7.50
2023-03-05T06:49:49.685Z,9.40
2023-03-05T06:52:16.418Z,6.10
2023-03-05T06:54:43.081Z,13.73
2023-03-05T06:57:10.580Z,7.90
2023-03-05T06:59:37.642Z,9.57
2023-03-05T07:02:04.619Z,10.13
2023-03-05T07:04:31.319Z,7.30
2023-03-05T07:06:59.101Z,10.03
2023-03-05T07:09:25.860Z,9.30
2023-03-05T07:11:52.577Z,5.80
2023-03-05T07:14:19.250Z,16.60
2023-03-05T07:16:46.075Z,13.50
2023-03-05T07:19:13.180Z,12.40
2023-03-05T07:21:40.368Z,10.40
2023-03-05T07:24:08.893Z,8.37
2023-03-05T07:26:35.704Z,6.20
2023-03-05T07:29:02.746Z,10.90
2023-03-05T07:31:31.767Z,7.60
2023-03-05T07:34:00.264Z,7.83
2023-03-05T07:36:27.454Z,9.77
2023-03-05T07:38:54.222Z,8.87
2023-03-05T07:41:22.141Z,8.83
2023-03-05T07:43:54.661Z,12.10
2023-03-05T07:46:25.683Z,7.83
2023-03-05T07:48:54.458Z,8.00
2023-03-05T07:51:22.362Z,11.27
2023-03-05T07:53:50.540Z,12.67
2023-03-05T07:56:28.866Z,6.20
2023-03-05T07:58:55.665Z,8.37
2023-03-05T08:01:22.541Z,7.73
2023-03-05T08:03:49.196Z,15.80
2023-03-05T08:06:16.147Z,6.70
2023-03-05T08:08:42.812Z,9.10
2023-03-05T08:11:11.669Z,5.40
2023-03-05T08:13:39.226Z,10.00
2023-03-05T08:16:14.630Z,13.67
2023-03-05T08:18:41.394Z,10.93
2023-03-05T08:21:20.264Z,8.27
2023-03-05T08:23:46.950Z,12.47
2023-03-05T08:26:16.462Z,13.60
2023-03-05T08:28:43.591Z,15.50
2023-03-05T08:31:13.359Z,10.43
2023-03-05T08:33:40.629Z,22.60
2023-03-05T08:36:08.729Z,26.43
2023-03-05T08:38:35.950Z,9.47
2023-03-05T08:41:04.001Z,11.53
2023-03-05T08:43:31.184Z,11.03
2023-03-05T08:46:00.088Z,10.93
2023-03-05T08:48:27.466Z,15.07
2023-03-05T08:50:54.497Z,9.03
2023-03-05T08:53:21.160Z,12.70
2023-03-05T08:55:58.286Z,12.80
2023-03-05T08:58:25.412Z,10.27
2023-03-05T09:00:52.467Z,9.50
2023-03-05T09:03:19.494Z,13.37
2023-03-05T09:05:46.185Z,9.10
2023-03-05T09:08:12.970Z,13.80
2023-03-05T09:10:42.018Z,8.63
2023-03-05T09:13:09.571Z,10.20
2023-03-05T09:15:36.357Z,9.77
2023-03-05T09:18:03.178Z,10.97
2023-03-05T09:20:29.982Z,10.93
2023-03-05T09:22:56.934Z,16.17
2023-03-05T09:25:27.514Z,13.93
2023-03-05T09:27:57.365Z,15.53
2023-03-05T09:30:24.299Z,9.13
2023-03-05T09:32:51.207Z,15.03
2023-03-05T09:35:19.091Z,14.90
2023-03-05T09:37:45.850Z,13.40
2023-03-05T09:40:17.800Z,14.73
2023-03-05T09:43:03.293Z,13.63
2023-03-05T09:45:38.545Z,15.57
2023-03-05T09:48:23.974Z,12.20
2023-03-05T09:51:01.965Z,9.90
2023-03-05T09:53:28.557Z,15.57
2023-03-05T09:55:58.590Z,14.50
2023-03-05T09:58:35.500Z,13.07
2023-03-05T10:01:13.925Z,15.57
2023-03-05T10:04:01.227Z,17.40
2023-03-05T10:06:47.220Z,17.60
2023-03-05T10:09:30.791Z,17.00
2023-03-05T10:12:03.113Z,14.97
2023-03-05T10:14:36.278Z,20.60
2023-03-05T10:17:21.840Z,17.83
2023-03-05T10:19:59.218Z,18.30
2023-03-05T10:22:38.585Z,16.93
2023-03-05T10:25:26.187Z,10.10
2023-03-05T10:27:59.376Z,13.03
2023-03-05T10:30:43.247Z,18.80
2023-03-05T10:33:29.206Z,11.53
2023-03-05T10:36:27.065Z,19.60
2023-03-05T10:39:04.394Z,18.43
2023-03-05T10:42:12.370Z,14.07
2023-03-05T10:44:46.528Z,13.47
2023-03-05T10:47:45.216Z,9.77
2023-03-05T10:50:24.801Z,10.13
2023-03-05T10:53:19.680Z,9.30
2023-03-05T10:55:46.460Z,7.90
2023-03-05T10:58:15.057Z,8.53
2023-03-05T11:01:00.234Z,8.70
2023-03-05T11:03:45.147Z,11.80
2023-03-05T11:06:13.132Z,11.03
2023-03-05T11:08:39.873Z,7.23
2023-03-05T11:11:22.992Z,11.10
2023-03-05T11:13:55.567Z,8.13
2023-03-05T11:16:25.886Z,16.43
2023-03-05T11:19:24.966Z,9.83
2023-03-05T11:22:16.867Z,9.23
2023-03-05T11:24:46.596Z,19.37
2023-03-05T11:27:35.433Z,12.80
2023-03-05T11:30:03.527Z,13.30
2023-03-05T11:32:31.350Z,8.37
2023-03-05T11:34:58.200Z,12.00
2023-03-05T11:37:33.672Z,13.17
2023-03-05T11:40:22.378Z,10.10
2023-03-05T11:42:56.462Z,12.43
2023-03-05T11:45:25.518Z,14.33
2023-03-05T11:48:15.965Z,14.70
2023-03-05T11:50:44.868Z,16.97
2023-03-05T11:53:18.471Z,16.97
2023-03-05T11:55:49.452Z,18.73
2023-03-05T11:58:39.103Z,15.60
2023-03-05T12:01:16.562Z,17.60
2023-03-05T12:03:44.422Z,16.17
2023-03-05T12:06:23.613Z,18.50
2023-03-05T12:08:56.924Z,34.77
2023-03-05T12:11:27.617Z,17.70
2023-03-05T12:14:19.179Z,16.33
2023-03-05T12:16:47.832Z,16.23
2023-03-05T12:19:55.319Z,18.87
2023-03-05T12:22:31.629Z,16.47
2023-03-05T12:25:35.569Z,14.40
2023-03-05T12:28:03.040Z,14.40
2023-03-05T12:30:49.628Z,9.63
2023-03-05T12:33:38.356Z,9.40
2023-03-05T12:36:35.107Z,12.80
2023-03-05T12:39:02.022Z,13.07
2023-03-05T12:41:33.064Z,13.57
2023-03-05T12:44:05.550Z,9.77
2023-03-05T12:46:42.794Z,11.10
2023-03-05T12:49:26.950Z,12.00
2023-03-05T12:51:55.719Z,10.17
2023-03-05T12:54:29.509Z,13.30
2023-03-05T12:57:17.967Z,12.80
2023-03-05T12:59:58.836Z,15.67
2023-03-05T13:02:36.765Z,19.73
2023-03-05T13:05:17.208Z,10.77
2023-03-05T13:07:43.973Z,12.40
2023-03-05T13:10:28.607Z,11.93
2023-03-05T13:12:58.308Z,8.70
2023-03-05T13:15:26.370Z,14.20
2023-03-05T13:18:03.649Z,10.23
2023-03-05T13:20:34.026Z,10.10
2023-03-05T13:23:27.489Z,11.93
2023-03-05T13:26:18.505Z,8.50
2023-03-05T13:29:02.495Z,10.00
2023-03-05T13:31:29.177Z,12.40
2023-03-05T13:34:05.569Z,9.40
2023-03-05T13:36:33.051Z,8.63
2023-03-05T13:39:00.604Z,13.67
2023-03-05T13:41:28.379Z,24.97
2023-03-05T13:44:02.407Z,96.40
2023-03-05T13:46:38.591Z,10.57
2023-03-05T13:49:23.189Z,8.10
2023-03-05T13:51:55.558Z,9.03
2023-03-05T13:54:23.874Z,11.60
2023-03-05T13:56:58.653Z,26.17
2023-03-05T13:59:31.051Z,13.50
2023-03-05T14:01:59.604Z,13.60
2023-03-05T14:04:29.391Z,11.50
2023-03-05T14:07:05.976Z,12.67
2023-03-05T14:09:48.371Z,10.17
2023-03-05T14:12:35.531Z,12.63
2023-03-05T14:15:20.320Z,9.27
2023-03-05T14:17:47.310Z,7.63
2023-03-05T14:20:13.989Z,12.33
2023-03-05T14:22:43.367Z,8.67
2023-03-05T14:25:37.989Z,10.43
2023-03-05T14:28:17.175Z,7.10
2023-03-05T14:30:48.435Z,8.00
2023-03-05T14:33:26.174Z,6.77
2023-03-05T14:35:53.783Z,7.37
2023-03-05T14:38:29.582Z,5.40
2023-03-05T14:40:56.419Z,6.30
2023-03-05T14:43:23.153Z,15.20
2023-03-05T14:45:50.225Z,6.57
2023-03-05T14:48:21.056Z,6.73
2023-03-05T14:50:56.462Z,9.93
2023-03-05T14:53:31.409Z,10.40
2023-03-05T14:55:58.092Z,8.47
2023-03-05T14:58:27.431Z,8.50
2023-03-05T15:00:55.569Z,7.50
2023-03-05T15:03:23.329Z,7.97
2023-03-05T15:05:53.359Z,7.33
2023-03-05T15:08:27.090Z,10.23
2023-03-05T15:10:54.690Z,6.57
2023-03-05T15:13:21.700Z,5.67
2023-03-05T15:15:50.386Z,10.40
2023-03-05T15:18:20.005Z,6.63
2023-03-05T15:20:48.728Z,6.43
2023-03-05T15:23:15.737Z,7.87
2023-03-05T15:25:42.592Z,6.30
2023-03-05T15:28:09.568Z,5.70
2023-03-05T15:30:39.648Z,9.90
2023-03-05T15:33:09.689Z,15.27
2023-03-05T15:35:36.836Z,24.73
2023-03-05T15:38:04.410Z,8.70
2023-03-05T15:40:31.556Z,6.87
2023-03-05T15:42:59.983Z,8.80
2023-03-05T15:45:27.554Z,13.93
2023-03-05T15:47:54.413Z,36.97
2023-03-05T15:50:22.554Z,35.83
2023-03-05T15:52:50.740Z,23.77
2023-03-05T15:55:20.895Z,40.77
2023-03-05T15:57:50.116Z,26.40
2023-03-05T16:00:22.055Z,12.53
2023-03-05T16:02:49.379Z,11.80
2023-03-05T16:05:16.351Z,11.70
2023-03-05T16:07:46.648Z,17.47
2023-03-05T16:10:17.637Z,19.00
2023-03-05T16:12:46.863Z,13.30
2023-03-05T16:15:17.383Z,16.43
2023-03-05T16:17:47.300Z,14.97
2023-03-05T16:20:15.104Z,13.90
2023-03-05T16:22:41.816Z,12.23
2023-03-05T16:25:09.159Z,12.50
2023-03-05T16:27:35.964Z,23.00
2023-03-05T16:30:04.065Z,12.97
2023-03-05T16:32:30.900Z,11.60
2023-03-05T16:34:58.576Z,13.50
2023-03-05T16:37:25.995Z,8.47
2023-03-05T16:39:52.679Z,11.83
2023-03-05T16:42:19.335Z,9.13
2023-03-05T16:44:47.308Z,26.83
2023-03-05T16:47:13.981Z,17.80
2023-03-05T16:49:40.780Z,26.57
2023-03-05T16:52:18.251Z,17.33
2023-03-05T16:54:46.369Z,37.13
2023-03-05T16:57:13.181Z,30.67
2023-03-05T16:59:40.155Z,15.27
2023-03-05T17:02:06.972Z,16.50
2023-03-05T17:04:33.959Z,13.30
2023-03-05T17:07:00.668Z,10.27
2023-03-05T17:09:27.441Z,14.97
2023-03-05T17:11:55.020Z,14.27
2023-03-05T17:14:22.160Z,11.10
2023-03-05T17:16:49.277Z,12.30
2023-03-05T17:19:16.769Z,14.70
2023-03-05T17:21:43.519Z,12.97
2023-03-05T17:24:11.084Z,13.40
2023-03-05T17:26:38.607Z,14.40
2023-03-05T17:29:06.839Z,16.97
2023-03-05T17:31:34.080Z,14.20
2023-03-05T17:34:00.901Z,15.17
2023-03-05T17:36:28.238Z,17.33
2023-03-05T17:38:55.051Z,13.77
2023-03-05T17:41:22.712Z,12.17
2023-03-05T17:43:49.524Z,19.13
2023-03-05T17:46:16.671Z,14.97
2023-03-05T17:48:43.818Z,22.03
2023-03-05T17:51:13.425Z,15.07
2023-03-05T17:53:40.939Z,25.33
2023-03-05T17:56:09.386Z,14.77
2023-03-05T17:58:37.087Z,19.37
2023-03-05T18:01:05.054Z,24.43
2023-03-05T18:03:31.838Z,22.13
2023-03-05T18:05:58.540Z,22.77
2023-03-05T18:08:25.327Z,22.57
2023-03-05T18:10:52.901Z,22.83
2023-03-05T18:13:19.619Z,27.10
2023-03-05T18:15:47.713Z,24.60
2023-03-05T18:18:16.098Z,27.30
2023-03-05T18:20:44.250Z,23.83
2023-03-05T18:23:11.405Z,27.70
2023-03-05T18:25:38.269Z,27.57
2023-03-05T18:28:08.969Z,22.23
2023-03-05T18:30:37.145Z,25.00
2023-03-05T18:33:04.635Z,25.57
2023-03-05T18:35:32.193Z,33.40
2023-03-05T18:38:00.372Z,24.27
2023-03-05T18:40:29.359Z,23.63
2023-03-05T18:42:58.602Z,24.37
2023-03-05T18:45:25.351Z,27.63
2023-03-05T18:47:54.081Z,21.00
2023-03-05T18:50:22.405Z,22.20
2023-03-05T18:52:49.447Z,22.40
2023-03-05T18:55:18.215Z,59.60
2023-03-05T18:57:45.447Z,33.07
2023-03-05T19:00:18.932Z,29.97
2023-03-05T19:02:45.618Z,23.13
2023-03-05T19:05:14.169Z,23.30
2023-03-05T19:07:41.606Z,26.47
2023-03-05T19:10:11.469Z,23.80
2023-03-05T19:12:45.412Z,25.80
2023-03-05T19:15:13.466Z,22.43
2023-03-05T19:17:40.585Z,26.03
2023-03-05T19:20:10.002Z,28.40
2023-03-05T19:22:36.945Z,24.27
2023-03-05T19:25:05.164Z,22.50
2023-03-05T19:27:32.110Z,24.07
2023-03-05T19:30:00.027Z,22.13
2023-03-05T19:32:26.817Z,22.40
2023-03-05T19:34:58.118Z,24.70
2023-03-05T19:37:25.242Z,24.90
2023-03-05T19:39:51.951Z,25.27
2023-03-05T19:42:19.196Z,22.07
2023-03-05T19:44:45.979Z,27.13
2023-03-05T19:47:12.683Z,25.10
2023-03-05T19:49:39.426Z,22.40
2023-03-05T19:52:06.495Z,25.03
2023-03-05T19:54:33.674Z,27.30
2023-03-05T19:57:00.471Z,27.63
2023-03-05T19:59:27.254Z,31.10
2023-03-05T20:01:54.153Z,22.60
2023-03-05T20:04:22.603Z,24.07
2023-03-05T20:06:49.435Z,26.17
2023-03-05T20:09:16.520Z,21.37
2023-03-05T20:11:43.423Z,21.70
2023-03-05T20:14:10.355Z,26.33
2023-03-05T20:16:37.873Z,30.20
2023-03-05T20:19:06.186Z,31.93
2023-03-05T20:21:39.585Z,23.30
2023-03-05T20:24:10.288Z,24.43
2023-03-05T20:26:38.956Z,21.50
2023-03-05T20:29:06.428Z,23.13
2023-03-05T20:31:36.727Z,21.20
2023-03-05T20:34:05.830Z,20.87
2023-03-05T20:36:34.483Z,21.23
2023-03-05T20:39:04.873Z,20.67
2023-03-05T20:41:32.868Z,20.50
2023-03-05T20:44:00.152Z,20.00
2023-03-05T20:46:33.302Z,21.40
2023-03-05T20:49:01.914Z,20.10
2023-03-05T20:51:37.793Z,21.00
2023-03-05T20:54:10.942Z,20.30
2023-03-05T20:56:37.982Z,19.20
2023-03-05T20:59:08.454Z,19.13
2023-03-05T21:01:37.157Z,20.03
2023-03-05T21:04:04.669Z,20.30
2023-03-05T21:06:32.711Z,22.50
2023-03-05T21:08:59.984Z,21.73
2023-03-05T21:11:27.165Z,22.00
2023-03-05T21:13:53.875Z,21.83
2023-03-05T21:16:23.269Z,22.10
2023-03-05T21:18:51.382Z,20.43
2023-03-05T21:21:19.000Z,18.40
2023-03-05T21:23:46.899Z,17.63
2023-03-05T21:26:13.842Z,22.07
2023-03-05T21:28:41.901Z,19.10
2023-03-05T21:31:14.136Z,20.83
2023-03-05T21:33:42.004Z,21.10
2023-03-05T21:36:08.819Z,17.13
2023-03-05T21:38:35.685Z,16.60
2023-03-05T21:41:03.238Z,19.90
2023-03-05T21:43:31.219Z,16.17
2023-03-05T21:46:00.658Z,20.53
2023-03-05T21:48:27.577Z,24.83
2023-03-05T21:50:55.194Z,23.57
2023-03-05T21:53:22.132Z,19.83
2023-03-05T21:56:20.756Z,20.87
2023-03-05T21:58:48.551Z,26.33
2023-03-05T22:01:18.293Z,25.60
2023-03-05T22:03:45.786Z,32.40
2023-03-05T22:06:14.788Z,24.87
2023-03-05T22:08:41.748Z,27.57
2023-03-05T22:11:13.481Z,25.10
2023-03-05T22:13:40.281Z,33.87
2023-03-05T22:16:09.027Z,33.07
2023-03-05T22:18:36.482Z,30.07
2023-03-05T22:21:04.437Z,29.90
2023-03-05T22:23:34.873Z,32.53
2023-03-05T22:26:06.821Z,32.87
2023-03-05T22:28:34.655Z,30.93
2023-03-05T22:31:01.607Z,31.80
2023-03-05T22:33:28.955Z,37.17
2023-03-05T22:35:55.861Z,31.43
2023-03-05T22:38:22.902Z,36.80
2023-03-05T22:40:50.409Z,37.00
2023-03-05T22:43:18.401Z,39.07
2023-03-05T22:45:45.166Z,41.47
2023-03-05T22:48:12.689Z,43.97
2023-03-05T22:50:41.058Z,41.63
2023-03-05T22:53:08.422Z,40.33
2023-03-05T22:55:41.472Z,38.80
2023-03-05T22:58:08.279Z,43.80
2023-03-05T23:00:35.337Z,41.40
2023-03-05T23:03:02.615Z,34.97
2023-03-05T23:05:29.341Z,35.97
2023-03-05T23:07:56.032Z,41.93
2023-03-05T23:10:26.944Z,38.97
2023-03-05T23:12:55.063Z,44.40
2023-03-05T23:15:22.130Z,42.93
2023-03-05T23:17:48.811Z,46.50
2023-03-05T23:20:16.913Z,38.30
2023-03-05T23:22:45.018Z,42.80
2023-03-05T23:25:14.120Z,42.20
2023-03-05T23:27:41.443Z,38.17
2023-03-05T23:30:16.276Z,41.37
2023-03-05T23:32:45.064Z,41.13
2023-03-05T23:35:14.528Z,38.83
2023-03-05T23:37:41.660Z,37.77
2023-03-05T23:40:12.684Z,40.80
2023-03-05T23:42:39.485Z,34.83
2023-03-05T23:45:07.711Z,32.17
2023-03-05T23:47:35.960Z,36.10
2023-03-05T23:50:04.582Z,30.50
2023-03-05T23:52:31.271Z,27.13
2023-03-05T23:54:58.280Z,30.40
2023-03-05T23:57:25.906Z,29.13
2023-03-05T23:59:52.636Z,32.53
